Bigfork, MN (56628)

8:28 AM CST on December 07, 2016 (GMT -0600)
Bigfork Municipal | | Change Station

Elev 1348 ft 47.78 °N, 93.65 °W | Updated 16 minutes ago

Light Snow
Light Snow
18 °F
Feels Like 4 °F
N
13
Wind Variable Wind from WSW
Gusts 16 mph

Today
High -- | Low -- °F
--% Chance of Precip.
Yesterday
High -- | Low -- °F
Precip. -- in
Pressure 29.68 in
Visibility 2.5 miles
Clouds Mostly Cloudy 200 ft
Overcast 1700 ft
Windchill 4 °F
Dew Point 16 °F
Humidity 93%
Rainfall 0.00 in
Snow Depth Not available.
7:49 AM 4:22 PM
First Quarter, 53% visible
METAR KFOZ 071412Z AUTO 25011G14KT 2 1/2SM -SN BKN002 OVC017 M08/M09 A2968 RMK AO2 TSNO
Pressure 29.68 in
Visibility 2.5 miles
Clouds Mostly Cloudy 200 ft
Overcast 1700 ft
Windchill 4 °F
Dew Point 16 °F
Humidity 93%
Rainfall 0.00 in
Snow Depth Not available.
7:49 AM 4:22 PM
First Quarter, 53% visible
METAR KFOZ 071412Z AUTO 25011G14KT 2 1/2SM -SN BKN002 OVC017 M08/M09 A2968 RMK AO2 TSNO

10-Day Weather Forecast

Almanac

Astronomy

Dec. 07, 2016 Rise Set
Actual Time
Civil Twilight
Nautical Twilight
Astronomical Twilight
Moon
Length of Visible Light
Length of Day
Tomorrow will be .
, % of the Moon is Illuminated

Today's Extremes

State Highs State Lows

Community

WunderPhotos

Upload Photos

1,956,116 photos uploaded!

WunderBlog® & News

Nearby

Air Quality

  Air Quality AQ Index Pollutant
Not available.

Snow Depth

Station Depth Elevation

Earthquake Activity

City Distance Mag. Time & Date
Minimum magnitude displayed is 2.5.

Coastal Water Temperatures

Place Temperature

Stations

Nearby Weather Stations

Station Location Temp. Windchill Dew Point Humidity Wind Precip. Elev Updated Type
                   

Watches & Warnings

There are currently no watches in effect.